Terminal Aerodrome Forecast
Issued by NWS Cleveland, OH

Home | Current Version | Previous Version | Graphics & Text | Print | Product List | Glossary Off
Versions: 1 2 3 4 5 6 7 8 9 10 11 12 13 14 15 16 17 18 19 20 21 22 23 24 25

087
FTUS41 KCLE 251138
TAFTOL
TAF
KTOL 251138Z 2512/2612 22010G20KT P6SM BKN028 OVC050
      TEMPO 2512/2515 5SM -SHRASN BKN028
     FM251800 26020G30KT P6SM OVC025
     FM260000 27015G23KT P6SM BKN030
     FM260800 27010KT P6SM SCT030=

USA.gov is the U.S. government's official web portal to all federal, state and local government web resources and services.